sensor_id;sensor_type;location;lat;lon;timestamp;P1;durP1;ratioP1;P2;durP2;ratioP2
26600;SDS011;14241;49.260;10.496;2023-02-28T00:02:17;5.50;;;4.10;;
26600;SDS011;14241;49.260;10.496;2023-02-28T00:04:42;7.18;;;4.63;;
26600;SDS011;14241;49.260;10.496;2023-02-28T00:07:08;6.00;;;4.32;;
26600;SDS011;14241;49.260;10.496;2023-02-28T00:09:33;5.22;;;4.20;;
26600;SDS011;14241;49.260;10.496;2023-02-28T00:11:58;5.13;;;4.07;;
26600;SDS011;14241;49.260;10.496;2023-02-28T00:14:23;5.33;;;4.33;;
26600;SDS011;14241;49.260;10.496;2023-02-28T00:16:48;6.77;;;4.30;;
26600;SDS011;14241;49.260;10.496;2023-02-28T00:19:14;6.90;;;4.50;;
26600;SDS011;14241;49.260;10.496;2023-02-28T00:21:39;8.57;;;4.77;;
26600;SDS011;14241;49.260;10.496;2023-02-28T00:24:06;5.55;;;3.88;;
26600;SDS011;14241;49.260;10.496;2023-02-28T00:26:31;6.45;;;4.68;;
26600;SDS011;14241;49.260;10.496;2023-02-28T00:28:56;5.37;;;4.67;;
26600;SDS011;14241;49.260;10.496;2023-02-28T00:31:21;6.87;;;4.60;;
26600;SDS011;14241;49.260;10.496;2023-02-28T00:33:46;5.27;;;4.77;;
26600;SDS011;14241;49.260;10.496;2023-02-28T00:36:12;5.57;;;4.80;;
26600;SDS011;14241;49.260;10.496;2023-02-28T00:38:37;7.30;;;4.70;;
26600;SDS011;14241;49.260;10.496;2023-02-28T00:41:03;6.70;;;5.03;;
26600;SDS011;14241;49.260;10.496;2023-02-28T00:43:29;4.95;;;4.20;;
26600;SDS011;14241;49.260;10.496;2023-02-28T00:45:55;7.43;;;4.90;;
26600;SDS011;14241;49.260;10.496;2023-02-28T00:48:20;8.00;;;4.80;;
26600;SDS011;14241;49.260;10.496;2023-02-28T00:50:48;5.55;;;4.47;;
26600;SDS011;14241;49.260;10.496;2023-02-28T00:53:13;5.20;;;4.70;;
26600;SDS011;14241;49.260;10.496;2023-02-28T00:55:38;5.77;;;4.63;;
26600;SDS011;14241;49.260;10.496;2023-02-28T00:58:03;7.33;;;4.60;;
26600;SDS011;14241;49.260;10.496;2023-02-28T01:00:28;7.63;;;4.83;;
26600;SDS011;14241;49.260;10.496;2023-02-28T01:02:53;5.57;;;4.90;;
26600;SDS011;14241;49.260;10.496;2023-02-28T01:05:19;5.87;;;5.03;;
26600;SDS011;14241;49.260;10.496;2023-02-28T01:07:44;8.53;;;4.67;;
26600;SDS011;14241;49.260;10.496;2023-02-28T01:10:09;6.10;;;4.93;;
26600;SDS011;14241;49.260;10.496;2023-02-28T01:12:35;6.85;;;4.85;;
26600;SDS011;14241;49.260;10.496;2023-02-28T01:15:00;6.07;;;4.83;;
26600;SDS011;14241;49.260;10.496;2023-02-28T01:17:25;6.20;;;5.33;;
26600;SDS011;14241;49.260;10.496;2023-02-28T01:19:52;5.88;;;4.70;;
26600;SDS011;14241;49.260;10.496;2023-02-28T01:22:17;6.35;;;4.88;;
26600;SDS011;14241;49.260;10.496;2023-02-28T01:24:43;6.77;;;5.10;;
26600;SDS011;14241;49.260;10.496;2023-02-28T01:27:08;7.03;;;4.97;;
26600;SDS011;14241;49.260;10.496;2023-02-28T01:29:33;6.03;;;5.00;;
26600;SDS011;14241;49.260;10.496;2023-02-28T01:31:58;5.97;;;4.60;;
26600;SDS011;14241;49.260;10.496;2023-02-28T01:34:24;6.63;;;5.18;;
26600;SDS011;14241;49.260;10.496;2023-02-28T01:36:49;6.43;;;5.07;;
26600;SDS011;14241;49.260;10.496;2023-02-28T01:39:14;5.57;;;4.97;;
26600;SDS011;14241;49.260;10.496;2023-02-28T01:41:40;6.55;;;5.15;;
26600;SDS011;14241;49.260;10.496;2023-02-28T01:44:06;7.35;;;5.60;;
26600;SDS011;14241;49.260;10.496;2023-02-28T01:46:32;6.60;;;5.25;;
26600;SDS011;14241;49.260;10.496;2023-02-28T01:49:31;6.35;;;5.15;;
26600;SDS011;14241;49.260;10.496;2023-02-28T01:51:50;6.38;;;5.60;;
26600;SDS011;14241;49.260;10.496;2023-02-28T01:54:18;6.82;;;5.07;;
26600;SDS011;14241;49.260;10.496;2023-02-28T01:56:47;7.88;;;5.57;;
26600;SDS011;14241;49.260;10.496;2023-02-28T01:59:14;5.80;;;5.00;;
26600;SDS011;14241;49.260;10.496;2023-02-28T02:01:44;7.13;;;5.43;;
26600;SDS011;14241;49.260;10.496;2023-02-28T02:04:09;5.57;;;4.93;;
26600;SDS011;14241;49.260;10.496;2023-02-28T02:06:39;7.55;;;5.72;;
26600;SDS011;14241;49.260;10.496;2023-02-28T02:09:05;6.97;;;5.63;;
26600;SDS011;14241;49.260;10.496;2023-02-28T02:11:31;6.70;;;5.30;;
26600;SDS011;14241;49.260;10.496;2023-02-28T02:16:46;7.82;;;5.95;;
26600;SDS011;14241;49.260;10.496;2023-02-28T02:22:18;6.05;;;5.35;;
26600;SDS011;14241;49.260;10.496;2023-02-28T02:27:25;7.93;;;5.60;;
26600;SDS011;14241;49.260;10.496;2023-02-28T02:30:08;7.05;;;5.68;;
26600;SDS011;14241;49.260;10.496;2023-02-28T02:35:21;9.48;;;5.10;;
26600;SDS011;14241;49.260;10.496;2023-02-28T02:40:35;7.03;;;6.00;;
26600;SDS011;14241;49.260;10.496;2023-02-28T02:43:06;6.30;;;5.70;;
26600;SDS011;14241;49.260;10.496;2023-02-28T02:45:44;7.63;;;5.85;;
26600;SDS011;14241;49.260;10.496;2023-02-28T02:48:11;9.27;;;6.57;;
26600;SDS011;14241;49.260;10.496;2023-02-28T02:50:42;6.00;;;5.38;;
26600;SDS011;14241;49.260;10.496;2023-02-28T02:53:08;6.07;;;5.15;;
26600;SDS011;14241;49.260;10.496;2023-02-28T02:55:36;6.57;;;5.88;;
26600;SDS011;14241;49.260;10.496;2023-02-28T02:58:04;7.72;;;6.15;;
26600;SDS011;14241;49.260;10.496;2023-02-28T03:00:33;6.75;;;6.03;;
26600;SDS011;14241;49.260;10.496;2023-02-28T03:02:59;7.00;;;4.72;;
26600;SDS011;14241;49.260;10.496;2023-02-28T03:05:27;6.53;;;4.53;;
26600;SDS011;14241;49.260;10.496;2023-02-28T03:07:53;10.82;;;6.47;;
26600;SDS011;14241;49.260;10.496;2023-02-28T03:10:38;8.00;;;6.03;;
26600;SDS011;14241;49.260;10.496;2023-02-28T03:13:07;6.97;;;6.00;;
26600;SDS011;14241;49.260;10.496;2023-02-28T03:15:40;9.20;;;6.43;;
26600;SDS011;14241;49.260;10.496;2023-02-28T03:18:13;7.45;;;5.90;;
26600;SDS011;14241;49.260;10.496;2023-02-28T03:20:45;9.45;;;5.68;;
26600;SDS011;14241;49.260;10.496;2023-02-28T03:23:17;7.25;;;6.20;;
26600;SDS011;14241;49.260;10.496;2023-02-28T03:25:59;8.85;;;6.15;;
26600;SDS011;14241;49.260;10.496;2023-02-28T03:31:14;6.82;;;5.95;;
26600;SDS011;14241;49.260;10.496;2023-02-28T03:33:43;8.55;;;6.35;;
26600;SDS011;14241;49.260;10.496;2023-02-28T03:36:12;7.55;;;6.50;;
26600;SDS011;14241;49.260;10.496;2023-02-28T03:38:44;8.68;;;6.43;;
26600;SDS011;14241;49.260;10.496;2023-02-28T03:41:18;7.05;;;6.32;;
26600;SDS011;14241;49.260;10.496;2023-02-28T03:43:52;9.55;;;6.93;;
26600;SDS011;14241;49.260;10.496;2023-02-28T03:46:19;7.57;;;6.53;;
26600;SDS011;14241;49.260;10.496;2023-02-28T03:48:51;8.63;;;6.53;;
26600;SDS011;14241;49.260;10.496;2023-02-28T03:51:17;7.95;;;5.43;;
26600;SDS011;14241;49.260;10.496;2023-02-28T03:53:49;7.82;;;6.20;;
26600;SDS011;14241;49.260;10.496;2023-02-28T03:56:20;8.18;;;6.20;;
26600;SDS011;14241;49.260;10.496;2023-02-28T03:58:51;7.75;;;6.18;;
26600;SDS011;14241;49.260;10.496;2023-02-28T04:01:23;9.00;;;6.78;;
26600;SDS011;14241;49.260;10.496;2023-02-28T04:03:49;7.45;;;6.28;;
26600;SDS011;14241;49.260;10.496;2023-02-28T04:06:19;8.38;;;6.22;;
26600;SDS011;14241;49.260;10.496;2023-02-28T04:08:45;8.38;;;6.28;;
26600;SDS011;14241;49.260;10.496;2023-02-28T04:11:23;9.25;;;5.32;;
26600;SDS011;14241;49.260;10.496;2023-02-28T04:13:49;8.30;;;6.50;;
26600;SDS011;14241;49.260;10.496;2023-02-28T04:16:14;8.07;;;6.50;;
26600;SDS011;14241;49.260;10.496;2023-02-28T04:18:40;8.93;;;7.18;;
26600;SDS011;14241;49.260;10.496;2023-02-28T04:21:06;8.13;;;7.10;;
26600;SDS011;14241;49.260;10.496;2023-02-28T04:23:31;10.05;;;7.13;;
26600;SDS011;14241;49.260;10.496;2023-02-28T04:25:57;7.88;;;6.72;;
26600;SDS011;14241;49.260;10.496;2023-02-28T04:28:22;9.70;;;7.38;;
26600;SDS011;14241;49.260;10.496;2023-02-28T04:30:47;8.52;;;7.18;;
26600;SDS011;14241;49.260;10.496;2023-02-28T04:33:12;8.60;;;6.20;;
26600;SDS011;14241;49.260;10.496;2023-02-28T04:35:37;6.10;;;4.70;;
26600;SDS011;14241;49.260;10.496;2023-02-28T04:38:03;7.97;;;6.80;;
26600;SDS011;14241;49.260;10.496;2023-02-28T04:40:28;8.88;;;7.18;;
26600;SDS011;14241;49.260;10.496;2023-02-28T04:42:53;9.10;;;7.10;;
26600;SDS011;14241;49.260;10.496;2023-02-28T04:45:18;9.13;;;7.43;;
26600;SDS011;14241;49.260;10.496;2023-02-28T04:47:43;10.20;;;7.63;;
26600;SDS011;14241;49.260;10.496;2023-02-28T04:50:09;8.88;;;7.35;;
26600;SDS011;14241;49.260;10.496;2023-02-28T04:52:34;9.75;;;7.90;;
26600;SDS011;14241;49.260;10.496;2023-02-28T04:54:59;9.57;;;8.13;;
26600;SDS011;14241;49.260;10.496;2023-02-28T04:57:24;9.80;;;8.20;;
26600;SDS011;14241;49.260;10.496;2023-02-28T04:59:50;9.32;;;8.32;;
26600;SDS011;14241;49.260;10.496;2023-02-28T05:02:15;11.40;;;8.30;;
26600;SDS011;14241;49.260;10.496;2023-02-28T05:04:40;8.77;;;7.78;;
26600;SDS011;14241;49.260;10.496;2023-02-28T05:07:05;10.33;;;8.40;;
26600;SDS011;14241;49.260;10.496;2023-02-28T05:09:30;9.73;;;8.67;;
26600;SDS011;14241;49.260;10.496;2023-02-28T05:11:57;9.07;;;8.18;;
26600;SDS011;14241;49.260;10.496;2023-02-28T05:14:23;9.40;;;8.13;;
26600;SDS011;14241;49.260;10.496;2023-02-28T05:16:48;13.23;;;7.20;;
26600;SDS011;14241;49.260;10.496;2023-02-28T05:19:13;10.67;;;9.43;;
26600;SDS011;14241;49.260;10.496;2023-02-28T05:21:39;11.03;;;9.43;;
26600;SDS011;14241;49.260;10.496;2023-02-28T05:24:06;10.38;;;9.27;;
26600;SDS011;14241;49.260;10.496;2023-02-28T05:26:36;11.20;;;8.82;;
26600;SDS011;14241;49.260;10.496;2023-02-28T05:29:02;10.45;;;7.75;;
26600;SDS011;14241;49.260;10.496;2023-02-28T05:31:27;10.57;;;8.97;;
26600;SDS011;14241;49.260;10.496;2023-02-28T05:33:52;13.30;;;7.57;;
26600;SDS011;14241;49.260;10.496;2023-02-28T05:36:17;10.77;;;7.05;;
26600;SDS011;14241;49.260;10.496;2023-02-28T05:38:43;10.45;;;9.15;;
26600;SDS011;14241;49.260;10.496;2023-02-28T05:41:09;13.05;;;6.40;;
26600;SDS011;14241;49.260;10.496;2023-02-28T05:43:34;10.50;;;9.35;;
26600;SDS011;14241;49.260;10.496;2023-02-28T05:46:02;11.13;;;8.60;;
26600;SDS011;14241;49.260;10.496;2023-02-28T05:48:27;10.60;;;9.25;;
26600;SDS011;14241;49.260;10.496;2023-02-28T05:50:52;10.37;;;9.30;;
26600;SDS011;14241;49.260;10.496;2023-02-28T05:53:17;13.50;;;10.10;;
26600;SDS011;14241;49.260;10.496;2023-02-28T05:55:42;10.75;;;9.57;;
26600;SDS011;14241;49.260;10.496;2023-02-28T05:58:08;11.23;;;9.65;;
26600;SDS011;14241;49.260;10.496;2023-02-28T06:00:33;14.47;;;11.03;;
26600;SDS011;14241;49.260;10.496;2023-02-28T06:02:58;11.95;;;10.23;;
26600;SDS011;14241;49.260;10.496;2023-02-28T06:05:26;11.80;;;9.85;;
26600;SDS011;14241;49.260;10.496;2023-02-28T06:07:52;11.40;;;10.15;;
26600;SDS011;14241;49.260;10.496;2023-02-28T06:10:18;12.85;;;10.60;;
26600;SDS011;14241;49.260;10.496;2023-02-28T06:12:44;13.00;;;9.98;;
26600;SDS011;14241;49.260;10.496;2023-02-28T06:15:11;13.85;;;10.50;;
26600;SDS011;14241;49.260;10.496;2023-02-28T06:17:37;13.13;;;10.77;;
26600;SDS011;14241;49.260;10.496;2023-02-28T06:20:03;11.75;;;10.50;;
26600;SDS011;14241;49.260;10.496;2023-02-28T06:22:28;14.93;;;10.98;;
26600;SDS011;14241;49.260;10.496;2023-02-28T06:24:53;12.40;;;10.73;;
26600;SDS011;14241;49.260;10.496;2023-02-28T06:27:19;13.70;;;11.45;;
26600;SDS011;14241;49.260;10.496;2023-02-28T06:29:45;13.13;;;11.07;;
26600;SDS011;14241;49.260;10.496;2023-02-28T06:32:10;11.70;;;10.47;;
26600;SDS011;14241;49.260;10.496;2023-02-28T06:34:35;14.35;;;10.40;;
26600;SDS011;14241;49.260;10.496;2023-02-28T06:37:01;12.47;;;11.17;;
26600;SDS011;14241;49.260;10.496;2023-02-28T06:39:27;14.57;;;11.50;;
26600;SDS011;14241;49.260;10.496;2023-02-28T06:41:53;14.15;;;11.55;;
26600;SDS011;14241;49.260;10.496;2023-02-28T06:44:18;13.10;;;10.67;;
26600;SDS011;14241;49.260;10.496;2023-02-28T06:46:43;12.63;;;10.82;;
26600;SDS011;14241;49.260;10.496;2023-02-28T06:49:10;11.90;;;10.70;;
26600;SDS011;14241;49.260;10.496;2023-02-28T06:51:36;12.15;;;10.20;;
26600;SDS011;14241;49.260;10.496;2023-02-28T06:54:01;12.48;;;10.55;;
26600;SDS011;14241;49.260;10.496;2023-02-28T06:56:26;11.43;;;10.23;;
26600;SDS011;14241;49.260;10.496;2023-02-28T06:58:52;12.73;;;11.15;;
26600;SDS011;14241;49.260;10.496;2023-02-28T07:01:21;13.52;;;11.32;;
26600;SDS011;14241;49.260;10.496;2023-02-28T07:03:48;13.50;;;11.02;;
26600;SDS011;14241;49.260;10.496;2023-02-28T07:06:17;12.85;;;11.15;;
26600;SDS011;14241;49.260;10.496;2023-02-28T07:08:42;13.90;;;11.55;;
26600;SDS011;14241;49.260;10.496;2023-02-28T07:11:08;14.10;;;11.55;;
26600;SDS011;14241;49.260;10.496;2023-02-28T07:13:33;11.98;;;10.68;;
26600;SDS011;14241;49.260;10.496;2023-02-28T07:16:00;12.87;;;11.03;;
26600;SDS011;14241;49.260;10.496;2023-02-28T07:18:25;11.85;;;10.65;;
26600;SDS011;14241;49.260;10.496;2023-02-28T07:20:50;12.32;;;10.75;;
26600;SDS011;14241;49.260;10.496;2023-02-28T07:23:16;11.60;;;10.40;;
26600;SDS011;14241;49.260;10.496;2023-02-28T07:25:41;12.93;;;11.30;;
26600;SDS011;14241;49.260;10.496;2023-02-28T07:28:06;13.73;;;11.52;;
26600;SDS011;14241;49.260;10.496;2023-02-28T07:30:32;17.77;;;13.65;;
26600;SDS011;14241;49.260;10.496;2023-02-28T07:32:57;19.67;;;14.73;;
26600;SDS011;14241;49.260;10.496;2023-02-28T07:35:22;14.57;;;11.67;;
26600;SDS011;14241;49.260;10.496;2023-02-28T07:37:48;14.80;;;12.35;;
26600;SDS011;14241;49.260;10.496;2023-02-28T07:40:13;15.13;;;12.93;;
26600;SDS011;14241;49.260;10.496;2023-02-28T07:42:39;13.98;;;12.10;;
26600;SDS011;14241;49.260;10.496;2023-02-28T07:45:05;13.35;;;11.82;;
26600;SDS011;14241;49.260;10.496;2023-02-28T07:47:30;13.68;;;11.32;;
26600;SDS011;14241;49.260;10.496;2023-02-28T07:49:56;14.50;;;11.90;;
26600;SDS011;14241;49.260;10.496;2023-02-28T07:52:21;14.63;;;12.05;;
26600;SDS011;14241;49.260;10.496;2023-02-28T07:54:48;12.85;;;11.43;;
26600;SDS011;14241;49.260;10.496;2023-02-28T07:57:13;14.87;;;11.57;;
26600;SDS011;14241;49.260;10.496;2023-02-28T07:59:38;11.90;;;10.40;;
26600;SDS011;14241;49.260;10.496;2023-02-28T08:02:04;13.40;;;11.63;;
26600;SDS011;14241;49.260;10.496;2023-02-28T08:04:31;14.10;;;11.70;;
26600;SDS011;14241;49.260;10.496;2023-02-28T08:06:57;13.82;;;10.48;;
26600;SDS011;14241;49.260;10.496;2023-02-28T08:09:22;13.90;;;11.63;;
26600;SDS011;14241;49.260;10.496;2023-02-28T08:11:47;14.73;;;11.52;;
26600;SDS011;14241;49.260;10.496;2023-02-28T08:14:12;12.90;;;10.97;;
26600;SDS011;14241;49.260;10.496;2023-02-28T08:16:38;13.70;;;11.50;;
26600;SDS011;14241;49.260;10.496;2023-02-28T08:19:03;13.00;;;10.93;;
26600;SDS011;14241;49.260;10.496;2023-02-28T08:21:29;12.95;;;11.43;;
26600;SDS011;14241;49.260;10.496;2023-02-28T08:23:54;13.32;;;11.93;;
26600;SDS011;14241;49.260;10.496;2023-02-28T08:26:19;13.03;;;11.67;;
26600;SDS011;14241;49.260;10.496;2023-02-28T08:28:45;13.32;;;11.63;;
26600;SDS011;14241;49.260;10.496;2023-02-28T08:31:11;11.77;;;10.57;;
26600;SDS011;14241;49.260;10.496;2023-02-28T08:33:37;13.52;;;10.55;;
26600;SDS011;14241;49.260;10.496;2023-02-28T08:36:04;14.60;;;10.63;;
26600;SDS011;14241;49.260;10.496;2023-02-28T08:38:29;11.95;;;10.57;;
26600;SDS011;14241;49.260;10.496;2023-02-28T08:40:58;13.47;;;11.57;;
26600;SDS011;14241;49.260;10.496;2023-02-28T08:43:23;11.98;;;9.85;;
26600;SDS011;14241;49.260;10.496;2023-02-28T08:45:51;14.03;;;10.97;;
26600;SDS011;14241;49.260;10.496;2023-02-28T08:48:16;12.95;;;10.90;;
26600;SDS011;14241;49.260;10.496;2023-02-28T08:50:41;12.87;;;10.67;;
26600;SDS011;14241;49.260;10.496;2023-02-28T08:53:06;11.60;;;9.90;;
26600;SDS011;14241;49.260;10.496;2023-02-28T08:55:31;15.60;;;10.77;;
26600;SDS011;14241;49.260;10.496;2023-02-28T08:57:57;15.80;;;10.65;;
26600;SDS011;14241;49.260;10.496;2023-02-28T09:00:23;16.15;;;10.30;;
26600;SDS011;14241;49.260;10.496;2023-02-28T09:02:48;12.05;;;9.98;;
26600;SDS011;14241;49.260;10.496;2023-02-28T09:05:13;14.73;;;10.35;;
26600;SDS011;14241;49.260;10.496;2023-02-28T09:07:38;14.57;;;10.50;;
26600;SDS011;14241;49.260;10.496;2023-02-28T09:10:04;14.53;;;10.03;;
26600;SDS011;14241;49.260;10.496;2023-02-28T09:12:31;11.20;;;9.57;;
26600;SDS011;14241;49.260;10.496;2023-02-28T09:14:57;15.48;;;10.13;;
26600;SDS011;14241;49.260;10.496;2023-02-28T09:17:22;13.60;;;10.27;;
26600;SDS011;14241;49.260;10.496;2023-02-28T09:19:48;13.70;;;10.00;;
26600;SDS011;14241;49.260;10.496;2023-02-28T09:22:13;12.30;;;9.90;;
26600;SDS011;14241;49.260;10.496;2023-02-28T09:24:38;14.93;;;9.80;;
26600;SDS011;14241;49.260;10.496;2023-02-28T09:27:03;14.33;;;10.10;;
26600;SDS011;14241;49.260;10.496;2023-02-28T09:29:29;19.50;;;10.17;;
26600;SDS011;14241;49.260;10.496;2023-02-28T09:31:54;12.57;;;10.40;;
26600;SDS011;14241;49.260;10.496;2023-02-28T09:34:19;13.10;;;10.27;;
26600;SDS011;14241;49.260;10.496;2023-02-28T09:36:45;13.05;;;10.25;;
26600;SDS011;14241;49.260;10.496;2023-02-28T09:39:10;12.20;;;9.90;;
26600;SDS011;14241;49.260;10.496;2023-02-28T09:41:37;12.50;;;10.43;;
26600;SDS011;14241;49.260;10.496;2023-02-28T09:44:05;12.50;;;10.57;;
26600;SDS011;14241;49.260;10.496;2023-02-28T09:46:34;13.60;;;10.60;;
26600;SDS011;14241;49.260;10.496;2023-02-28T09:49:02;12.15;;;10.75;;
26600;SDS011;14241;49.260;10.496;2023-02-28T09:54:13;12.88;;;10.30;;
26600;SDS011;14241;49.260;10.496;2023-02-28T09:56:41;14.15;;;10.50;;
26600;SDS011;14241;49.260;10.496;2023-02-28T09:59:42;12.05;;;9.82;;
26600;SDS011;14241;49.260;10.496;2023-02-28T10:07:27;11.57;;;9.35;;
26600;SDS011;14241;49.260;10.496;2023-02-28T10:09:57;11.63;;;9.73;;
26600;SDS011;14241;49.260;10.496;2023-02-28T10:12:24;12.88;;;9.88;;
26600;SDS011;14241;49.260;10.496;2023-02-28T10:14:53;12.60;;;10.10;;
26600;SDS011;14241;49.260;10.496;2023-02-28T10:17:26;12.23;;;10.10;;
26600;SDS011;14241;49.260;10.496;2023-02-28T10:19:58;13.05;;;9.98;;
26600;SDS011;14241;49.260;10.496;2023-02-28T10:22:37;11.77;;;9.88;;
26600;SDS011;14241;49.260;10.496;2023-02-28T10:25:05;12.07;;;9.88;;
26600;SDS011;14241;49.260;10.496;2023-02-28T10:27:40;10.98;;;9.63;;
26600;SDS011;14241;49.260;10.496;2023-02-28T10:30:05;12.20;;;10.27;;
26600;SDS011;14241;49.260;10.496;2023-02-28T10:32:31;12.77;;;9.23;;
26600;SDS011;14241;49.260;10.496;2023-02-28T10:37:22;11.52;;;9.32;;
26600;SDS011;14241;49.260;10.496;2023-02-28T10:39:48;13.18;;;9.15;;
26600;SDS011;14241;49.260;10.496;2023-02-28T10:42:26;12.02;;;10.23;;
26600;SDS011;14241;49.260;10.496;2023-02-28T10:45:06;15.65;;;9.48;;
26600;SDS011;14241;49.260;10.496;2023-02-28T10:47:31;13.40;;;10.23;;
26600;SDS011;14241;49.260;10.496;2023-02-28T10:49:58;13.73;;;9.52;;
26600;SDS011;14241;49.260;10.496;2023-02-28T10:52:34;12.05;;;9.90;;
26600;SDS011;14241;49.260;10.496;2023-02-28T10:55:20;11.00;;;9.38;;
26600;SDS011;14241;49.260;10.496;2023-02-28T10:57:46;11.02;;;9.13;;
26600;SDS011;14241;49.260;10.496;2023-02-28T11:00:14;16.15;;;10.52;;
26600;SDS011;14241;49.260;10.496;2023-02-28T11:02:40;10.57;;;8.75;;
26600;SDS011;14241;49.260;10.496;2023-02-28T11:05:29;14.77;;;9.88;;
26600;SDS011;14241;49.260;10.496;2023-02-28T11:07:53;10.70;;;8.88;;
26600;SDS011;14241;49.260;10.496;2023-02-28T11:10:19;12.85;;;9.50;;
26600;SDS011;14241;49.260;10.496;2023-02-28T11:12:46;12.30;;;9.38;;
26600;SDS011;14241;49.260;10.496;2023-02-28T11:15:24;13.45;;;10.27;;
26600;SDS011;14241;49.260;10.496;2023-02-28T11:17:53;14.18;;;10.25;;
26600;SDS011;14241;49.260;10.496;2023-02-28T11:20:22;10.45;;;9.00;;
26600;SDS011;14241;49.260;10.496;2023-02-28T11:22:48;12.52;;;10.02;;
26600;SDS011;14241;49.260;10.496;2023-02-28T11:25:28;12.52;;;9.05;;
26600;SDS011;14241;49.260;10.496;2023-02-28T11:28:01;10.88;;;9.30;;
26600;SDS011;14241;49.260;10.496;2023-02-28T11:32:52;12.57;;;9.35;;
26600;SDS011;14241;49.260;10.496;2023-02-28T11:35:19;14.48;;;10.10;;
26600;SDS011;14241;49.260;10.496;2023-02-28T11:37:47;11.35;;;9.52;;
26600;SDS011;14241;49.260;10.496;2023-02-28T11:40:13;11.70;;;9.43;;
26600;SDS011;14241;49.260;10.496;2023-02-28T11:45:27;12.23;;;9.05;;
26600;SDS011;14241;49.260;10.496;2023-02-28T11:48:02;11.00;;;8.30;;
26600;SDS011;14241;49.260;10.496;2023-02-28T11:50:45;12.68;;;9.10;;
26600;SDS011;14241;49.260;10.496;2023-02-28T12:03:33;10.52;;;8.80;;
26600;SDS011;14241;49.260;10.496;2023-02-28T12:08:42;12.40;;;9.15;;
26600;SDS011;14241;49.260;10.496;2023-02-28T12:16:37;24.30;;;9.35;;
26600;SDS011;14241;49.260;10.496;2023-02-28T12:19:22;15.70;;;8.65;;
26600;SDS011;14241;49.260;10.496;2023-02-28T12:24:53;12.07;;;8.48;;
26600;SDS011;14241;49.260;10.496;2023-02-28T12:27:20;12.48;;;9.00;;
26600;SDS011;14241;49.260;10.496;2023-02-28T12:30:08;13.93;;;8.57;;
26600;SDS011;14241;49.260;10.496;2023-02-28T12:32:39;11.93;;;8.85;;
26600;SDS011;14241;49.260;10.496;2023-02-28T12:40:13;11.80;;;9.32;;
26600;SDS011;14241;49.260;10.496;2023-02-28T12:42:41;12.93;;;9.13;;
26600;SDS011;14241;49.260;10.496;2023-02-28T12:45:11;12.10;;;9.13;;
26600;SDS011;14241;49.260;10.496;2023-02-28T12:47:38;13.32;;;8.70;;
26600;SDS011;14241;49.260;10.496;2023-02-28T12:50:06;13.05;;;8.82;;
26600;SDS011;14241;49.260;10.496;2023-02-28T13:00:04;11.87;;;9.17;;
26600;SDS011;14241;49.260;10.496;2023-02-28T13:02:59;13.85;;;8.73;;
26600;SDS011;14241;49.260;10.496;2023-02-28T13:10:59;14.20;;;9.57;;
26600;SDS011;14241;49.260;10.496;2023-02-28T13:13:25;11.88;;;9.40;;
26600;SDS011;14241;49.260;10.496;2023-02-28T13:16:26;10.27;;;8.77;;
26600;SDS011;14241;49.260;10.496;2023-02-28T13:18:45;13.43;;;8.30;;
26600;SDS011;14241;49.260;10.496;2023-02-28T13:21:29;11.40;;;8.80;;
26600;SDS011;14241;49.260;10.496;2023-02-28T13:23:58;11.43;;;8.63;;
26600;SDS011;14241;49.260;10.496;2023-02-28T13:27:10;13.55;;;9.13;;
26600;SDS011;14241;49.260;10.496;2023-02-28T13:34:27;12.60;;;9.45;;
26600;SDS011;14241;49.260;10.496;2023-02-28T13:47:28;11.98;;;9.38;;
26600;SDS011;14241;49.260;10.496;2023-02-28T13:49:53;11.35;;;8.93;;
26600;SDS011;14241;49.260;10.496;2023-02-28T13:52:20;11.07;;;9.40;;
26600;SDS011;14241;49.260;10.496;2023-02-28T13:55:29;12.50;;;8.95;;
26600;SDS011;14241;49.260;10.496;2023-02-28T14:00:20;13.35;;;9.60;;
26600;SDS011;14241;49.260;10.496;2023-02-28T14:03:09;13.10;;;9.57;;
26600;SDS011;14241;49.260;10.496;2023-02-28T14:05:36;14.43;;;9.10;;
26600;SDS011;14241;49.260;10.496;2023-02-28T14:08:07;12.65;;;9.27;;
26600;SDS011;14241;49.260;10.496;2023-02-28T14:10:39;13.98;;;9.55;;
26600;SDS011;14241;49.260;10.496;2023-02-28T14:20:47;10.68;;;8.75;;
26600;SDS011;14241;49.260;10.496;2023-02-28T14:25:44;14.55;;;8.90;;
26600;SDS011;14241;49.260;10.496;2023-02-28T14:28:33;12.95;;;9.40;;
26600;SDS011;14241;49.260;10.496;2023-02-28T14:31:04;10.95;;;8.38;;
26600;SDS011;14241;49.260;10.496;2023-02-28T14:33:35;11.02;;;9.15;;
26600;SDS011;14241;49.260;10.496;2023-02-28T14:36:21;13.52;;;9.05;;
26600;SDS011;14241;49.260;10.496;2023-02-28T14:38:52;10.73;;;8.10;;
26600;SDS011;14241;49.260;10.496;2023-02-28T14:41:29;13.40;;;9.50;;
26600;SDS011;14241;49.260;10.496;2023-02-28T14:46:20;14.77;;;8.17;;
26600;SDS011;14241;49.260;10.496;2023-02-28T14:48:46;11.10;;;8.88;;
26600;SDS011;14241;49.260;10.496;2023-02-28T14:51:11;13.48;;;9.63;;
26600;SDS011;14241;49.260;10.496;2023-02-28T14:53:37;12.35;;;9.52;;
26600;SDS011;14241;49.260;10.496;2023-02-28T14:56:02;14.70;;;9.35;;
26600;SDS011;14241;49.260;10.496;2023-02-28T14:58:32;12.55;;;8.77;;
26600;SDS011;14241;49.260;10.496;2023-02-28T15:01:01;12.43;;;9.00;;
26600;SDS011;14241;49.260;10.496;2023-02-28T15:03:31;14.65;;;9.38;;
26600;SDS011;14241;49.260;10.496;2023-02-28T15:06:01;14.18;;;9.70;;
26600;SDS011;14241;49.260;10.496;2023-02-28T15:08:27;15.65;;;9.23;;
26600;SDS011;14241;49.260;10.496;2023-02-28T15:18:54;12.13;;;8.55;;
26600;SDS011;14241;49.260;10.496;2023-02-28T15:21:22;13.05;;;8.82;;
26600;SDS011;14241;49.260;10.496;2023-02-28T15:23:56;11.90;;;9.00;;
26600;SDS011;14241;49.260;10.496;2023-02-28T15:26:23;9.70;;;8.18;;
26600;SDS011;14241;49.260;10.496;2023-02-28T15:29:00;12.68;;;8.60;;
26600;SDS011;14241;49.260;10.496;2023-02-28T15:31:27;15.43;;;9.40;;
26600;SDS011;14241;49.260;10.496;2023-02-28T15:33:54;12.57;;;8.63;;
26600;SDS011;14241;49.260;10.496;2023-02-28T15:36:19;11.80;;;9.18;;
26600;SDS011;14241;49.260;10.496;2023-02-28T15:38:50;12.27;;;9.48;;
26600;SDS011;14241;49.260;10.496;2023-02-28T15:41:35;11.68;;;9.43;;
26600;SDS011;14241;49.260;10.496;2023-02-28T15:44:24;11.75;;;9.25;;
26600;SDS011;14241;49.260;10.496;2023-02-28T15:47:01;14.73;;;9.60;;
26600;SDS011;14241;49.260;10.496;2023-02-28T15:49:27;13.00;;;9.35;;
26600;SDS011;14241;49.260;10.496;2023-02-28T15:51:53;13.80;;;9.90;;
26600;SDS011;14241;49.260;10.496;2023-02-28T15:54:24;12.40;;;9.18;;
26600;SDS011;14241;49.260;10.496;2023-02-28T15:56:51;12.20;;;9.50;;
26600;SDS011;14241;49.260;10.496;2023-02-28T15:59:21;12.50;;;9.60;;
26600;SDS011;14241;49.260;10.496;2023-02-28T16:02:01;12.82;;;9.55;;
26600;SDS011;14241;49.260;10.496;2023-02-28T16:04:27;11.35;;;8.80;;
26600;SDS011;14241;49.260;10.496;2023-02-28T16:09:24;12.07;;;9.05;;
26600;SDS011;14241;49.260;10.496;2023-02-28T16:11:50;13.30;;;9.27;;
26600;SDS011;14241;49.260;10.496;2023-02-28T16:14:19;14.57;;;9.38;;
26600;SDS011;14241;49.260;10.496;2023-02-28T16:16:46;12.40;;;9.18;;
26600;SDS011;14241;49.260;10.496;2023-02-28T16:19:11;13.25;;;9.40;;
26600;SDS011;14241;49.260;10.496;2023-02-28T16:21:37;13.25;;;9.82;;